sensor_id;sensor_type;location;lat;lon;timestamp;temperature;humidity
70807;DHT22;58882;52.170;5.386;2023-04-24T00:01:55;15.60;57.60
70807;DHT22;58882;52.170;5.386;2023-04-24T00:04:22;15.50;57.60
70807;DHT22;58882;52.170;5.386;2023-04-24T00:06:52;15.50;57.80
70807;DHT22;58882;52.170;5.386;2023-04-24T00:09:24;15.50;57.90
70807;DHT22;58882;52.170;5.386;2023-04-24T00:11:50;15.40;57.80
70807;DHT22;58882;52.170;5.386;2023-04-24T00:14:17;15.40;57.90
70807;DHT22;58882;52.170;5.386;2023-04-24T00:16:44;15.30;58.00
70807;DHT22;58882;52.170;5.386;2023-04-24T00:19:11;15.30;58.20
70807;DHT22;58882;52.170;5.386;2023-04-24T00:21:40;15.30;58.30
70807;DHT22;58882;52.170;5.386;2023-04-24T00:24:07;15.30;59.40
70807;DHT22;58882;52.170;5.386;2023-04-24T00:26:35;15.30;58.20
70807;DHT22;58882;52.170;5.386;2023-04-24T00:29:02;15.20;58.10
70807;DHT22;58882;52.170;5.386;2023-04-24T00:31:29;15.30;58.20
70807;DHT22;58882;52.170;5.386;2023-04-24T00:33:57;15.20;58.30
70807;DHT22;58882;52.170;5.386;2023-04-24T00:36:24;15.20;58.20
70807;DHT22;58882;52.170;5.386;2023-04-24T00:38:51;15.20;58.40
70807;DHT22;58882;52.170;5.386;2023-04-24T00:41:18;15.20;58.40
70807;DHT22;58882;52.170;5.386;2023-04-24T00:43:45;15.20;58.50
70807;DHT22;58882;52.170;5.386;2023-04-24T00:46:12;15.20;58.50
70807;DHT22;58882;52.170;5.386;2023-04-24T00:48:40;15.20;58.40
70807;DHT22;58882;52.170;5.386;2023-04-24T00:51:08;15.20;58.40
70807;DHT22;58882;52.170;5.386;2023-04-24T00:53:35;15.20;58.30
70807;DHT22;58882;52.170;5.386;2023-04-24T00:56:02;15.20;58.50
70807;DHT22;58882;52.170;5.386;2023-04-24T00:58:29;15.20;58.40
70807;DHT22;58882;52.170;5.386;2023-04-24T01:00:58;15.20;58.40
70807;DHT22;58882;52.170;5.386;2023-04-24T01:03:29;15.20;58.40
70807;DHT22;58882;52.170;5.386;2023-04-24T01:05:58;15.20;58.50
70807;DHT22;58882;52.170;5.386;2023-04-24T01:08:26;15.20;58.50
70807;DHT22;58882;52.170;5.386;2023-04-24T01:10:57;15.20;58.70
70807;DHT22;58882;52.170;5.386;2023-04-24T01:13:24;15.20;58.70
70807;DHT22;58882;52.170;5.386;2023-04-24T01:15:51;15.20;58.70
70807;DHT22;58882;52.170;5.386;2023-04-24T01:18:18;15.20;58.80
70807;DHT22;58882;52.170;5.386;2023-04-24T01:20:45;15.20;58.70
70807;DHT22;58882;52.170;5.386;2023-04-24T01:23:13;15.30;58.70
70807;DHT22;58882;52.170;5.386;2023-04-24T01:25:40;15.30;59.80
70807;DHT22;58882;52.170;5.386;2023-04-24T01:28:07;15.30;58.70
70807;DHT22;58882;52.170;5.386;2023-04-24T01:30:34;15.30;59.00
70807;DHT22;58882;52.170;5.386;2023-04-24T01:33:01;15.30;59.00
70807;DHT22;58882;52.170;5.386;2023-04-24T01:35:28;15.30;59.00
70807;DHT22;58882;52.170;5.386;2023-04-24T01:37:55;15.40;59.00
70807;DHT22;58882;52.170;5.386;2023-04-24T01:40:21;15.40;59.00
70807;DHT22;58882;52.170;5.386;2023-04-24T01:42:48;15.40;59.00
70807;DHT22;58882;52.170;5.386;2023-04-24T01:45:15;15.40;59.00
70807;DHT22;58882;52.170;5.386;2023-04-24T01:47:43;15.40;59.00
70807;DHT22;58882;52.170;5.386;2023-04-24T01:50:10;15.40;58.80
70807;DHT22;58882;52.170;5.386;2023-04-24T01:52:38;15.40;58.80
70807;DHT22;58882;52.170;5.386;2023-04-24T01:55:06;15.40;59.70
70807;DHT22;58882;52.170;5.386;2023-04-24T01:57:33;15.50;58.90
70807;DHT22;58882;52.170;5.386;2023-04-24T02:00:00;15.50;58.70
70807;DHT22;58882;52.170;5.386;2023-04-24T02:02:28;15.50;58.90
70807;DHT22;58882;52.170;5.386;2023-04-24T02:04:57;15.50;58.90
70807;DHT22;58882;52.170;5.386;2023-04-24T02:07:24;15.50;58.70
70807;DHT22;58882;52.170;5.386;2023-04-24T02:09:51;15.50;58.70
70807;DHT22;58882;52.170;5.386;2023-04-24T02:12:17;15.60;58.70
70807;DHT22;58882;52.170;5.386;2023-04-24T02:14:44;15.60;58.70
70807;DHT22;58882;52.170;5.386;2023-04-24T02:17:11;15.60;58.70
70807;DHT22;58882;52.170;5.386;2023-04-24T02:19:39;15.60;58.70
70807;DHT22;58882;52.170;5.386;2023-04-24T02:22:06;15.60;58.70
70807;DHT22;58882;52.170;5.386;2023-04-24T02:24:33;15.60;58.60
70807;DHT22;58882;52.170;5.386;2023-04-24T02:27:00;15.60;58.70
70807;DHT22;58882;52.170;5.386;2023-04-24T02:29:29;15.60;58.70
70807;DHT22;58882;52.170;5.386;2023-04-24T02:31:57;15.70;58.70
70807;DHT22;58882;52.170;5.386;2023-04-24T02:34:23;15.70;58.70
70807;DHT22;58882;52.170;5.386;2023-04-24T02:36:51;15.70;58.60
70807;DHT22;58882;52.170;5.386;2023-04-24T02:39:20;15.70;58.60
70807;DHT22;58882;52.170;5.386;2023-04-24T02:41:47;15.70;58.60
70807;DHT22;58882;52.170;5.386;2023-04-24T02:44:15;15.70;58.50
70807;DHT22;58882;52.170;5.386;2023-04-24T02:46:43;15.70;58.50
70807;DHT22;58882;52.170;5.386;2023-04-24T02:49:11;15.70;58.40
70807;DHT22;58882;52.170;5.386;2023-04-24T02:51:39;15.80;58.40
70807;DHT22;58882;52.170;5.386;2023-04-24T02:54:08;15.80;58.30
70807;DHT22;58882;52.170;5.386;2023-04-24T02:56:36;15.80;58.40
70807;DHT22;58882;52.170;5.386;2023-04-24T02:59:06;15.80;58.40
70807;DHT22;58882;52.170;5.386;2023-04-24T03:01:33;15.80;58.40
70807;DHT22;58882;52.170;5.386;2023-04-24T03:04:00;15.80;58.40
70807;DHT22;58882;52.170;5.386;2023-04-24T03:06:27;15.80;58.30
70807;DHT22;58882;52.170;5.386;2023-04-24T03:08:54;15.90;58.40
70807;DHT22;58882;52.170;5.386;2023-04-24T03:11:21;15.90;58.40
70807;DHT22;58882;52.170;5.386;2023-04-24T03:13:48;15.90;58.20
70807;DHT22;58882;52.170;5.386;2023-04-24T03:16:15;15.90;58.10
70807;DHT22;58882;52.170;5.386;2023-04-24T03:18:42;16.00;58.00
70807;DHT22;58882;52.170;5.386;2023-04-24T03:21:09;16.00;57.70
70807;DHT22;58882;52.170;5.386;2023-04-24T03:23:36;16.00;57.80
70807;DHT22;58882;52.170;5.386;2023-04-24T03:26:03;16.00;57.90
70807;DHT22;58882;52.170;5.386;2023-04-24T03:28:30;16.00;57.80
70807;DHT22;58882;52.170;5.386;2023-04-24T03:31:00;16.00;57.80
70807;DHT22;58882;52.170;5.386;2023-04-24T03:33:31;16.00;57.60
70807;DHT22;58882;52.170;5.386;2023-04-24T03:36:01;16.10;57.50
70807;DHT22;58882;52.170;5.386;2023-04-24T03:38:35;16.10;57.40
70807;DHT22;58882;52.170;5.386;2023-04-24T03:41:18;16.10;57.30
70807;DHT22;58882;52.170;5.386;2023-04-24T03:43:49;16.10;57.10
70807;DHT22;58882;52.170;5.386;2023-04-24T03:46:16;16.10;57.10
70807;DHT22;58882;52.170;5.386;2023-04-24T03:48:49;16.10;57.10
70807;DHT22;58882;52.170;5.386;2023-04-24T03:51:18;16.10;57.20
70807;DHT22;58882;52.170;5.386;2023-04-24T03:53:48;16.10;57.30
70807;DHT22;58882;52.170;5.386;2023-04-24T03:56:18;16.10;57.20
70807;DHT22;58882;52.170;5.386;2023-04-24T03:58:45;16.10;57.20
70807;DHT22;58882;52.170;5.386;2023-04-24T04:01:12;16.10;57.20
70807;DHT22;58882;52.170;5.386;2023-04-24T04:03:50;16.10;57.40
70807;DHT22;58882;52.170;5.386;2023-04-24T04:06:20;16.20;57.30
70807;DHT22;58882;52.170;5.386;2023-04-24T04:08:49;16.20;57.20
70807;DHT22;58882;52.170;5.386;2023-04-24T04:11:16;16.10;57.00
70807;DHT22;58882;52.170;5.386;2023-04-24T04:13:44;16.10;56.90
70807;DHT22;58882;52.170;5.386;2023-04-24T04:16:12;16.10;56.90
70807;DHT22;58882;52.170;5.386;2023-04-24T04:18:39;16.10;56.90
70807;DHT22;58882;52.170;5.386;2023-04-24T04:21:06;16.10;56.80
70807;DHT22;58882;52.170;5.386;2023-04-24T04:23:34;16.20;56.80
70807;DHT22;58882;52.170;5.386;2023-04-24T04:26:13;16.10;56.70
70807;DHT22;58882;52.170;5.386;2023-04-24T04:28:54;16.20;56.60
70807;DHT22;58882;52.170;5.386;2023-04-24T04:31:21;16.20;56.50
70807;DHT22;58882;52.170;5.386;2023-04-24T04:33:48;16.20;56.70
70807;DHT22;58882;52.170;5.386;2023-04-24T04:36:15;16.20;56.80
70807;DHT22;58882;52.170;5.386;2023-04-24T04:38:47;16.30;57.90
70807;DHT22;58882;52.170;5.386;2023-04-24T04:41:37;16.30;56.80
70807;DHT22;58882;52.170;5.386;2023-04-24T04:44:08;16.30;56.70
70807;DHT22;58882;52.170;5.386;2023-04-24T04:46:36;16.30;56.70
70807;DHT22;58882;52.170;5.386;2023-04-24T04:49:14;16.30;56.50
70807;DHT22;58882;52.170;5.386;2023-04-24T04:51:44;16.30;56.50
70807;DHT22;58882;52.170;5.386;2023-04-24T04:54:11;16.30;56.40
70807;DHT22;58882;52.170;5.386;2023-04-24T04:56:38;16.30;56.30
70807;DHT22;58882;52.170;5.386;2023-04-24T04:59:05;16.30;56.10
70807;DHT22;58882;52.170;5.386;2023-04-24T05:01:33;16.30;56.10
70807;DHT22;58882;52.170;5.386;2023-04-24T05:04:00;16.30;56.00
70807;DHT22;58882;52.170;5.386;2023-04-24T05:06:27;16.30;56.00
70807;DHT22;58882;52.170;5.386;2023-04-24T05:08:54;16.30;56.00
70807;DHT22;58882;52.170;5.386;2023-04-24T05:11:40;16.40;56.00
70807;DHT22;58882;52.170;5.386;2023-04-24T05:14:07;16.40;56.00
70807;DHT22;58882;52.170;5.386;2023-04-24T05:16:36;16.40;56.10
70807;DHT22;58882;52.170;5.386;2023-04-24T05:19:05;16.50;56.10
70807;DHT22;58882;52.170;5.386;2023-04-24T05:21:36;16.60;56.10
70807;DHT22;58882;52.170;5.386;2023-04-24T05:24:03;16.60;55.70
70807;DHT22;58882;52.170;5.386;2023-04-24T05:26:48;16.70;55.60
70807;DHT22;58882;52.170;5.386;2023-04-24T05:29:19;16.80;55.60
70807;DHT22;58882;52.170;5.386;2023-04-24T05:31:46;16.80;55.30
70807;DHT22;58882;52.170;5.386;2023-04-24T05:34:14;16.80;55.30
70807;DHT22;58882;52.170;5.386;2023-04-24T05:36:44;16.90;55.10
70807;DHT22;58882;52.170;5.386;2023-04-24T05:39:11;16.90;55.00
70807;DHT22;58882;52.170;5.386;2023-04-24T05:41:38;17.00;54.90
70807;DHT22;58882;52.170;5.386;2023-04-24T05:44:05;16.90;54.80
70807;DHT22;58882;52.170;5.386;2023-04-24T05:46:32;16.90;55.00
70807;DHT22;58882;52.170;5.386;2023-04-24T05:48:58;16.90;54.90
70807;DHT22;58882;52.170;5.386;2023-04-24T05:51:26;17.00;54.80
70807;DHT22;58882;52.170;5.386;2023-04-24T05:53:53;17.00;54.70
70807;DHT22;58882;52.170;5.386;2023-04-24T05:56:20;17.10;54.50
70807;DHT22;58882;52.170;5.386;2023-04-24T05:58:47;17.10;54.30
70807;DHT22;58882;52.170;5.386;2023-04-24T06:01:14;17.10;54.30
70807;DHT22;58882;52.170;5.386;2023-04-24T06:03:45;17.10;54.30
70807;DHT22;58882;52.170;5.386;2023-04-24T06:06:12;17.00;54.20
70807;DHT22;58882;52.170;5.386;2023-04-24T06:08:39;17.00;54.30
70807;DHT22;58882;52.170;5.386;2023-04-24T06:11:06;16.90;54.50
70807;DHT22;58882;52.170;5.386;2023-04-24T06:13:33;16.90;54.30
70807;DHT22;58882;52.170;5.386;2023-04-24T06:16:23;16.90;54.40
70807;DHT22;58882;52.170;5.386;2023-04-24T06:18:57;16.90;54.30
70807;DHT22;58882;52.170;5.386;2023-04-24T06:21:24;16.90;54.10
70807;DHT22;58882;52.170;5.386;2023-04-24T06:23:52;16.90;54.00
70807;DHT22;58882;52.170;5.386;2023-04-24T06:26:19;16.90;54.00
70807;DHT22;58882;52.170;5.386;2023-04-24T06:28:46;16.90;53.80
70807;DHT22;58882;52.170;5.386;2023-04-24T06:31:13;16.90;54.10
70807;DHT22;58882;52.170;5.386;2023-04-24T06:33:40;16.90;54.20
70807;DHT22;58882;52.170;5.386;2023-04-24T06:36:08;16.80;53.80
70807;DHT22;58882;52.170;5.386;2023-04-24T06:38:35;16.80;53.90
70807;DHT22;58882;52.170;5.386;2023-04-24T06:41:02;16.80;54.00
70807;DHT22;58882;52.170;5.386;2023-04-24T06:43:31;16.70;54.00
70807;DHT22;58882;52.170;5.386;2023-04-24T06:45:59;16.70;54.30
70807;DHT22;58882;52.170;5.386;2023-04-24T06:48:26;16.60;54.30
70807;DHT22;58882;52.170;5.386;2023-04-24T06:50:53;16.60;54.20
70807;DHT22;58882;52.170;5.386;2023-04-24T06:53:20;16.60;54.10
70807;DHT22;58882;52.170;5.386;2023-04-24T06:55:47;16.50;54.20
70807;DHT22;58882;52.170;5.386;2023-04-24T06:58:14;16.50;54.40
70807;DHT22;58882;52.170;5.386;2023-04-24T07:00:41;16.50;54.50
70807;DHT22;58882;52.170;5.386;2023-04-24T07:03:08;16.40;54.40
70807;DHT22;58882;52.170;5.386;2023-04-24T07:05:35;16.50;54.60
70807;DHT22;58882;52.170;5.386;2023-04-24T07:08:03;16.50;54.50
70807;DHT22;58882;52.170;5.386;2023-04-24T07:10:30;16.40;54.40
70807;DHT22;58882;52.170;5.386;2023-04-24T07:12:57;16.30;54.50
70807;DHT22;58882;52.170;5.386;2023-04-24T07:15:24;16.30;54.80
70807;DHT22;58882;52.170;5.386;2023-04-24T07:17:51;16.20;54.60
70807;DHT22;58882;52.170;5.386;2023-04-24T07:20:18;16.20;54.50
70807;DHT22;58882;52.170;5.386;2023-04-24T07:22:44;16.20;54.50
70807;DHT22;58882;52.170;5.386;2023-04-24T07:25:11;16.10;54.50
70807;DHT22;58882;52.170;5.386;2023-04-24T07:27:38;16.10;54.70
70807;DHT22;58882;52.170;5.386;2023-04-24T07:30:05;16.10;54.80
70807;DHT22;58882;52.170;5.386;2023-04-24T07:32:33;16.10;54.60
70807;DHT22;58882;52.170;5.386;2023-04-24T07:35:00;16.10;54.70
70807;DHT22;58882;52.170;5.386;2023-04-24T07:37:28;16.10;55.60
70807;DHT22;58882;52.170;5.386;2023-04-24T07:39:55;16.10;54.50
70807;DHT22;58882;52.170;5.386;2023-04-24T07:42:22;16.10;54.40
70807;DHT22;58882;52.170;5.386;2023-04-24T07:44:49;16.00;54.40
70807;DHT22;58882;52.170;5.386;2023-04-24T07:47:15;16.00;54.50
70807;DHT22;58882;52.170;5.386;2023-04-24T07:49:42;16.00;54.50
70807;DHT22;58882;52.170;5.386;2023-04-24T07:52:10;16.00;54.60
70807;DHT22;58882;52.170;5.386;2023-04-24T07:54:37;16.00;55.40
70807;DHT22;58882;52.170;5.386;2023-04-24T07:57:04;16.00;54.50
70807;DHT22;58882;52.170;5.386;2023-04-24T07:59:32;16.10;54.40
70807;DHT22;58882;52.170;5.386;2023-04-24T08:01:59;16.10;54.30
70807;DHT22;58882;52.170;5.386;2023-04-24T08:04:27;16.10;54.30
70807;DHT22;58882;52.170;5.386;2023-04-24T08:06:55;16.10;54.30
70807;DHT22;58882;52.170;5.386;2023-04-24T08:09:22;16.00;54.50
70807;DHT22;58882;52.170;5.386;2023-04-24T08:11:49;15.90;54.50
70807;DHT22;58882;52.170;5.386;2023-04-24T08:14:16;15.90;54.60
70807;DHT22;58882;52.170;5.386;2023-04-24T08:16:43;15.90;54.70
70807;DHT22;58882;52.170;5.386;2023-04-24T08:19:10;15.80;54.60
70807;DHT22;58882;52.170;5.386;2023-04-24T08:21:37;15.70;54.90
70807;DHT22;58882;52.170;5.386;2023-04-24T08:24:03;15.80;54.80
70807;DHT22;58882;52.170;5.386;2023-04-24T08:26:34;15.80;55.80
70807;DHT22;58882;52.170;5.386;2023-04-24T08:29:01;15.70;54.80
70807;DHT22;58882;52.170;5.386;2023-04-24T08:31:29;15.70;54.80
70807;DHT22;58882;52.170;5.386;2023-04-24T08:33:56;15.70;54.70
70807;DHT22;58882;52.170;5.386;2023-04-24T08:36:23;15.60;54.80
70807;DHT22;58882;52.170;5.386;2023-04-24T08:38:58;15.60;55.10
70807;DHT22;58882;52.170;5.386;2023-04-24T08:41:27;15.50;54.90
70807;DHT22;58882;52.170;5.386;2023-04-24T08:43:55;15.40;54.90
70807;DHT22;58882;52.170;5.386;2023-04-24T08:46:24;15.40;55.10
70807;DHT22;58882;52.170;5.386;2023-04-24T08:48:52;15.40;55.40
70807;DHT22;58882;52.170;5.386;2023-04-24T08:51:19;15.50;55.40
70807;DHT22;58882;52.170;5.386;2023-04-24T08:53:47;15.50;55.10
70807;DHT22;58882;52.170;5.386;2023-04-24T08:56:13;15.60;55.00
70807;DHT22;58882;52.170;5.386;2023-04-24T08:58:40;15.60;54.60
70807;DHT22;58882;52.170;5.386;2023-04-24T09:01:08;15.60;54.60
70807;DHT22;58882;52.170;5.386;2023-04-24T09:03:36;15.60;54.40
70807;DHT22;58882;52.170;5.386;2023-04-24T09:06:04;15.50;54.30
70807;DHT22;58882;52.170;5.386;2023-04-24T09:08:32;15.50;54.30
70807;DHT22;58882;52.170;5.386;2023-04-24T09:11:00;15.60;54.30
70807;DHT22;58882;52.170;5.386;2023-04-24T09:13:30;15.50;53.80
70807;DHT22;58882;52.170;5.386;2023-04-24T09:15:57;15.50;53.70
70807;DHT22;58882;52.170;5.386;2023-04-24T09:18:24;15.50;53.70
70807;DHT22;58882;52.170;5.386;2023-04-24T09:20:59;15.60;53.50
70807;DHT22;58882;52.170;5.386;2023-04-24T09:23:27;15.60;53.30
70807;DHT22;58882;52.170;5.386;2023-04-24T09:25:56;15.60;53.40
70807;DHT22;58882;52.170;5.386;2023-04-24T09:28:30;15.70;53.40
70807;DHT22;58882;52.170;5.386;2023-04-24T09:31:22;15.70;52.90
70807;DHT22;58882;52.170;5.386;2023-04-24T09:34:04;15.80;52.50
70807;DHT22;58882;52.170;5.386;2023-04-24T09:36:39;15.80;52.10
70807;DHT22;58882;52.170;5.386;2023-04-24T09:39:14;15.80;52.10
70807;DHT22;58882;52.170;5.386;2023-04-24T09:41:50;15.90;51.90
70807;DHT22;58882;52.170;5.386;2023-04-24T09:44:19;15.90;51.80
70807;DHT22;58882;52.170;5.386;2023-04-24T09:46:54;16.00;51.60
70807;DHT22;58882;52.170;5.386;2023-04-24T09:49:26;16.00;51.40
70807;DHT22;58882;52.170;5.386;2023-04-24T09:52:07;16.10;51.20
70807;DHT22;58882;52.170;5.386;2023-04-24T09:54:35;16.10;50.80
70807;DHT22;58882;52.170;5.386;2023-04-24T09:57:03;16.10;50.70
70807;DHT22;58882;52.170;5.386;2023-04-24T09:59:30;16.10;50.60
70807;DHT22;58882;52.170;5.386;2023-04-24T10:01:57;16.00;50.60
70807;DHT22;58882;52.170;5.386;2023-04-24T10:04:27;16.10;50.40
70807;DHT22;58882;52.170;5.386;2023-04-24T10:06:57;16.10;50.40
70807;DHT22;58882;52.170;5.386;2023-04-24T10:09:25;16.10;50.30
70807;DHT22;58882;52.170;5.386;2023-04-24T10:11:54;16.20;50.00
70807;DHT22;58882;52.170;5.386;2023-04-24T10:14:22;16.20;49.80
70807;DHT22;58882;52.170;5.386;2023-04-24T10:16:50;16.30;49.90
70807;DHT22;58882;52.170;5.386;2023-04-24T10:19:19;16.30;49.70
70807;DHT22;58882;52.170;5.386;2023-04-24T10:21:46;16.30;50.30
70807;DHT22;58882;52.170;5.386;2023-04-24T10:24:15;16.30;49.50
70807;DHT22;58882;52.170;5.386;2023-04-24T10:26:44;16.30;49.00
70807;DHT22;58882;52.170;5.386;2023-04-24T10:29:11;16.30;48.90
70807;DHT22;58882;52.170;5.386;2023-04-24T10:31:39;16.30;49.10
70807;DHT22;58882;52.170;5.386;2023-04-24T10:34:09;16.30;48.70
70807;DHT22;58882;52.170;5.386;2023-04-24T10:36:41;16.30;48.70
70807;DHT22;58882;52.170;5.386;2023-04-24T10:39:12;16.30;48.60
70807;DHT22;58882;52.170;5.386;2023-04-24T10:41:39;16.40;48.50
70807;DHT22;58882;52.170;5.386;2023-04-24T10:44:10;16.50;48.30
70807;DHT22;58882;52.170;5.386;2023-04-24T10:46:38;16.70;48.20
70807;DHT22;58882;52.170;5.386;2023-04-24T10:49:07;16.90;47.60
70807;DHT22;58882;52.170;5.386;2023-04-24T11:00:10;17.00;46.70
70807;DHT22;58882;52.170;5.386;2023-04-24T11:02:40;17.00;47.00
70807;DHT22;58882;52.170;5.386;2023-04-24T11:05:10;17.00;48.10
70807;DHT22;58882;52.170;5.386;2023-04-24T11:08:14;17.00;47.00
70807;DHT22;58882;52.170;5.386;2023-04-24T11:10:47;17.00;46.90
70807;DHT22;58882;52.170;5.386;2023-04-24T11:13:17;17.00;46.90
70807;DHT22;58882;52.170;5.386;2023-04-24T11:16:28;17.00;47.00
70807;DHT22;58882;52.170;5.386;2023-04-24T11:21:43;16.90;47.40
70807;DHT22;58882;52.170;5.386;2023-04-24T11:27:13;16.80;47.60
70807;DHT22;58882;52.170;5.386;2023-04-24T11:40:07;17.50;47.00
70807;DHT22;58882;52.170;5.386;2023-04-24T11:42:40;17.70;46.20
70807;DHT22;58882;52.170;5.386;2023-04-24T11:47:38;18.00;45.30
70807;DHT22;58882;52.170;5.386;2023-04-24T11:50:08;18.00;45.00
70807;DHT22;58882;52.170;5.386;2023-04-24T11:52:43;17.90;45.00
70807;DHT22;58882;52.170;5.386;2023-04-24T11:57:47;18.00;44.70
70807;DHT22;58882;52.170;5.386;2023-04-24T12:00:20;18.10;44.70
70807;DHT22;58882;52.170;5.386;2023-04-24T12:02:48;18.40;44.50
70807;DHT22;58882;52.170;5.386;2023-04-24T12:05:28;18.60;43.80
70807;DHT22;58882;52.170;5.386;2023-04-24T12:07:57;18.80;43.20
70807;DHT22;58882;52.170;5.386;2023-04-24T12:10:26;18.80;42.70
70807;DHT22;58882;52.170;5.386;2023-04-24T12:12:56;18.70;42.60
70807;DHT22;58882;52.170;5.386;2023-04-24T12:15:23;18.50;42.60
70807;DHT22;58882;52.170;5.386;2023-04-24T12:17:51;18.40;42.70
70807;DHT22;58882;52.170;5.386;2023-04-24T12:20:24;18.30;42.80
70807;DHT22;58882;52.170;5.386;2023-04-24T12:22:53;18.20;43.70
70807;DHT22;58882;52.170;5.386;2023-04-24T12:25:32;18.10;42.70
70807;DHT22;58882;52.170;5.386;2023-04-24T12:30:34;17.80;42.50
70807;DHT22;58882;52.170;5.386;2023-04-24T12:33:02;17.70;43.30
70807;DHT22;58882;52.170;5.386;2023-04-24T12:35:31;17.60;42.30
70807;DHT22;58882;52.170;5.386;2023-04-24T12:40:34;17.40;42.60
70807;DHT22;58882;52.170;5.386;2023-04-24T12:43:14;17.30;42.60
70807;DHT22;58882;52.170;5.386;2023-04-24T12:45:41;17.30;42.50
70807;DHT22;58882;52.170;5.386;2023-04-24T12:48:08;17.40;42.70
70807;DHT22;58882;52.170;5.386;2023-04-24T12:50:35;17.40;43.20
70807;DHT22;58882;52.170;5.386;2023-04-24T12:53:02;17.50;43.20
70807;DHT22;58882;52.170;5.386;2023-04-24T12:55:28;17.40;42.10
70807;DHT22;58882;52.170;5.386;2023-04-24T12:57:55;17.40;42.20
70807;DHT22;58882;52.170;5.386;2023-04-24T13:00:22;17.40;42.50
70807;DHT22;58882;52.170;5.386;2023-04-24T13:02:49;17.30;42.60
70807;DHT22;58882;52.170;5.386;2023-04-24T13:05:16;17.20;43.10
70807;DHT22;58882;52.170;5.386;2023-04-24T13:07:43;17.20;43.60
70807;DHT22;58882;52.170;5.386;2023-04-24T13:10:10;17.10;44.00
70807;DHT22;58882;52.170;5.386;2023-04-24T13:12:37;17.00;44.40
70807;DHT22;58882;52.170;5.386;2023-04-24T13:15:06;16.90;44.80
70807;DHT22;58882;52.170;5.386;2023-04-24T13:17:33;16.90;44.90
70807;DHT22;58882;52.170;5.386;2023-04-24T13:20:00;17.00;45.20
70807;DHT22;58882;52.170;5.386;2023-04-24T13:22:27;17.00;45.30
70807;DHT22;58882;52.170;5.386;2023-04-24T13:24:53;17.00;45.20
70807;DHT22;58882;52.170;5.386;2023-04-24T13:27:21;17.00;44.90
70807;DHT22;58882;52.170;5.386;2023-04-24T13:29:47;17.10;44.80
70807;DHT22;58882;52.170;5.386;2023-04-24T13:32:14;17.10;45.30
70807;DHT22;58882;52.170;5.386;2023-04-24T13:34:42;17.10;44.20
70807;DHT22;58882;52.170;5.386;2023-04-24T13:37:09;17.30;44.00
70807;DHT22;58882;52.170;5.386;2023-04-24T13:39:36;17.30;43.60
70807;DHT22;58882;52.170;5.386;2023-04-24T13:42:03;17.40;43.80
70807;DHT22;58882;52.170;5.386;2023-04-24T13:44:31;17.40;43.20
70807;DHT22;58882;52.170;5.386;2023-04-24T13:46:58;17.30;44.00
70807;DHT22;58882;52.170;5.386;2023-04-24T13:49:25;17.30;43.30
70807;DHT22;58882;52.170;5.386;2023-04-24T13:51:54;17.20;43.20
70807;DHT22;58882;52.170;5.386;2023-04-24T13:54:21;17.10;43.10
70807;DHT22;58882;52.170;5.386;2023-04-24T13:56:50;17.00;43.20
70807;DHT22;58882;52.170;5.386;2023-04-24T13:59:22;17.00;43.30
70807;DHT22;58882;52.170;5.386;2023-04-24T14:01:48;16.90;43.20
70807;DHT22;58882;52.170;5.386;2023-04-24T14:04:16;16.90;43.30
70807;DHT22;58882;52.170;5.386;2023-04-24T14:06:43;17.00;43.40
70807;DHT22;58882;52.170;5.386;2023-04-24T14:09:10;17.10;43.30
70807;DHT22;58882;52.170;5.386;2023-04-24T14:11:37;17.20;43.30
70807;DHT22;58882;52.170;5.386;2023-04-24T14:14:04;17.20;42.80
70807;DHT22;58882;52.170;5.386;2023-04-24T14:16:32;17.40;42.50
70807;DHT22;58882;52.170;5.386;2023-04-24T14:18:59;17.40;42.30
70807;DHT22;58882;52.170;5.386;2023-04-24T14:21:26;17.50;42.20
70807;DHT22;58882;52.170;5.386;2023-04-24T14:23:52;17.50;42.00
70807;DHT22;58882;52.170;5.386;2023-04-24T14:26:19;17.50;41.90
70807;DHT22;58882;52.170;5.386;2023-04-24T14:28:46;17.50;41.80
70807;DHT22;58882;52.170;5.386;2023-04-24T14:31:13;17.50;41.80
70807;DHT22;58882;52.170;5.386;2023-04-24T14:33:41;17.50;41.80
70807;DHT22;58882;52.170;5.386;2023-04-24T14:36:08;17.50;41.70
70807;DHT22;58882;52.170;5.386;2023-04-24T14:38:35;17.50;41.50
70807;DHT22;58882;52.170;5.386;2023-04-24T14:41:02;17.50;41.30
70807;DHT22;58882;52.170;5.386;2023-04-24T14:43:39;17.50;41.20
70807;DHT22;58882;52.170;5.386;2023-04-24T14:46:07;17.50;41.30
70807;DHT22;58882;52.170;5.386;2023-04-24T14:48:33;17.50;41.30
70807;DHT22;58882;52.170;5.386;2023-04-24T14:51:00;17.50;41.20
70807;DHT22;58882;52.170;5.386;2023-04-24T14:53:27;17.50;40.90
70807;DHT22;58882;52.170;5.386;2023-04-24T14:55:54;17.40;41.10
70807;DHT22;58882;52.170;5.386;2023-04-24T14:58:21;17.40;41.40
70807;DHT22;58882;52.170;5.386;2023-04-24T15:00:48;17.40;41.40
70807;DHT22;58882;52.170;5.386;2023-04-24T15:03:18;17.40;41.50
70807;DHT22;58882;52.170;5.386;2023-04-24T15:05:46;17.30;41.40
70807;DHT22;58882;52.170;5.386;2023-04-24T15:08:13;17.30;41.50
70807;DHT22;58882;52.170;5.386;2023-04-24T15:10:40;17.30;41.40
70807;DHT22;58882;52.170;5.386;2023-04-24T15:13:07;17.30;41.30
70807;DHT22;58882;52.170;5.386;2023-04-24T15:15:34;17.30;41.40
70807;DHT22;58882;52.170;5.386;2023-04-24T15:18:01;17.20;41.20
70807;DHT22;58882;52.170;5.386;2023-04-24T15:20:28;17.20;41.20
70807;DHT22;58882;52.170;5.386;2023-04-24T15:22:54;17.20;41.40
70807;DHT22;58882;52.170;5.386;2023-04-24T15:25:22;17.20;41.30
70807;DHT22;58882;52.170;5.386;2023-04-24T15:27:48;17.20;41.10
70807;DHT22;58882;52.170;5.386;2023-04-24T15:30:15;17.20;41.10
70807;DHT22;58882;52.170;5.386;2023-04-24T15:32:42;17.20;41.50
70807;DHT22;58882;52.170;5.386;2023-04-24T15:35:09;17.20;41.10
70807;DHT22;58882;52.170;5.386;2023-04-24T15:37:38;17.20;41.00
70807;DHT22;58882;52.170;5.386;2023-04-24T15:40:05;17.20;41.00
70807;DHT22;58882;52.170;5.386;2023-04-24T15:42:34;17.10;40.90
70807;DHT22;58882;52.170;5.386;2023-04-24T15:45:02;17.10;40.40
70807;DHT22;58882;52.170;5.386;2023-04-24T15:47:30;17.10;40.40
70807;DHT22;58882;52.170;5.386;2023-04-24T15:49:57;17.10;40.50
70807;DHT22;58882;52.170;5.386;2023-04-24T15:52:24;17.00;40.70
70807;DHT22;58882;52.170;5.386;2023-04-24T15:54:51;17.00;41.90
70807;DHT22;58882;52.170;5.386;2023-04-24T15:57:18;17.10;40.90
70807;DHT22;58882;52.170;5.386;2023-04-24T15:59:45;17.10;41.10
70807;DHT22;58882;52.170;5.386;2023-04-24T16:02:13;17.10;40.90
70807;DHT22;58882;52.170;5.386;2023-04-24T16:04:47;17.10;41.60
70807;DHT22;58882;52.170;5.386;2023-04-24T16:07:15;17.10;40.50
70807;DHT22;58882;52.170;5.386;2023-04-24T16:09:43;17.10;40.30
70807;DHT22;58882;52.170;5.386;2023-04-24T16:12:11;17.10;40.30
70807;DHT22;58882;52.170;5.386;2023-04-24T16:14:38;17.10;39.50